Time;durP1;ratioP1;P1;durP2;ratioP2;P2;SDS_P1;SDS_P2;PMS_P1;PMS_P2;Temp;Humidity;BMP_temperature;BMP_pressure;BME280_temperature;BME280_humidity;BME280_pressure;Samples;Min_cycle;Max_cycle;Signal;HPM_P1;HPM_P2
2022/09/24 00:01:31;;;;;;;0.50;0.50;;;22.50;59.20;;;;;;4980432;28;20077;-22
2022/09/24 00:03:59;;;;;;;0.52;0.52;;;22.50;59.10;;;;;;4977339;28;20054;-20
2022/09/24 00:06:26;;;;;;;0.80;0.80;;;22.50;59.10;;;;;;4980384;28;20583;-20
2022/09/24 00:08:53;;;;;;;1.00;0.95;;;22.50;59.20;;;;;;4980137;28;20035;-21
2022/09/24 00:11:19;;;;;;;0.80;0.80;;;22.50;59.10;;;;;;4984621;28;20046;-21
2022/09/24 00:13:45;;;;;;;0.70;0.50;;;22.40;59.00;;;;;;4979165;28;20061;-20
2022/09/24 00:16:12;;;;;;;0.60;0.60;;;22.40;59.10;;;;;;4981399;28;20404;-21
2022/09/24 00:18:38;;;;;;;1.95;0.60;;;22.40;59.20;;;;;;4980373;28;20050;-22
2022/09/24 00:21:14;;;;;;;0.60;0.57;;;22.40;59.10;;;;;;4979501;28;20504;-20
2022/09/24 00:23:39;;;;;;;0.85;0.85;;;22.40;59.10;;;;;;4981098;28;20049;-19
2022/09/24 00:28:50;;;;;;;;;;;22.40;59.00;;;;;;4979948;28;20056;-19
2022/09/24 00:31:15;;;;;;;0.50;0.50;;;22.40;59.00;;;;;;4982890;28;19917;-21
2022/09/24 00:33:42;;;;;;;0.70;0.70;;;22.40;59.00;;;;;;4980785;28;20057;-30
2022/09/24 00:36:07;;;;;;;0.60;0.60;;;22.40;59.00;;;;;;4983218;28;20537;-20
2022/09/24 00:38:33;;;;;;;0.50;0.50;;;22.30;59.10;;;;;;4984692;28;20030;-22
2022/09/24 00:40:59;;;;;;;0.50;0.50;;;22.30;59.00;;;;;;4985449;28;20050;-22
2022/09/24 00:43:35;;;;;;;0.50;0.50;;;22.40;59.00;;;;;;4981032;28;20049;-20
2022/09/24 00:46:30;;;;;;;0.30;0.30;;;22.30;59.00;;;;;;4982689;28;20050;-20
2022/09/24 00:49:10;;;;;;;0.50;0.50;;;22.30;59.10;;;;;;4998107;28;20516;-20
2022/09/24 00:51:35;;;;;;;0.45;0.45;;;22.30;59.10;;;;;;4986577;28;20038;-19
2022/09/24 00:54:04;;;;;;;0.47;0.47;;;22.30;59.70;;;;;;5010722;28;20035;-20
2022/09/24 00:56:31;;;;;;;0.35;0.35;;;22.30;59.10;;;;;;5016409;28;20492;-22
2022/09/24 00:58:57;;;;;;;0.60;0.60;;;22.30;59.00;;;;;;5014913;28;20057;-20
2022/09/24 01:01:23;;;;;;;0.38;0.38;;;22.30;59.10;;;;;;4967528;28;20039;-21
2022/09/24 01:03:49;;;;;;;0.45;0.43;;;22.30;59.10;;;;;;4985407;28;20038;-21
2022/09/24 01:06:15;;;;;;;0.50;0.43;;;22.30;59.10;;;;;;4981125;28;20050;-20
2022/09/24 01:08:40;;;;;;;0.40;0.40;;;22.30;59.20;;;;;;5003459;28;20046;-20
2022/09/24 01:11:09;;;;;;;0.60;0.60;;;22.20;59.10;;;;;;4989102;28;20045;-23
2022/09/24 01:14:10;;;;;;;0.47;0.47;;;22.20;59.20;;;;;;4983976;28;20034;-20
2022/09/24 01:16:45;;;;;;;0.60;0.60;;;22.20;59.30;;;;;;5016869;28;20137;-20
2022/09/24 01:19:31;;;;;;;0.50;0.50;;;22.20;59.20;;;;;;4986316;28;20047;-21
2022/09/24 01:22:00;;;;;;;0.95;0.47;;;22.20;59.30;;;;;;4984457;28;20032;-20
2022/09/24 01:24:40;;;;;;;0.70;0.70;;;22.20;59.20;;;;;;4984087;28;20065;-21
2022/09/24 01:27:13;;;;;;;0.40;0.40;;;22.20;59.30;;;;;;4985846;28;20050;-20
2022/09/24 01:29:52;;;;;;;0.82;0.50;;;22.20;59.20;;;;;;5013118;28;20038;-21
2022/09/24 01:32:36;;;;;;;0.60;0.60;;;22.20;59.10;;;;;;4986508;28;20133;-20
2022/09/24 01:35:08;;;;;;;0.60;0.60;;;22.20;59.30;;;;;;4985726;28;20492;-21
2022/09/24 01:37:34;;;;;;;0.50;0.50;;;22.20;59.20;;;;;;4996885;28;20035;-20
2022/09/24 01:39:59;;;;;;;0.57;0.57;;;22.20;59.30;;;;;;4968025;28;20068;-22
2022/09/24 01:42:26;;;;;;;0.45;0.45;;;22.20;59.30;;;;;;4985094;28;20647;-20
2022/09/24 01:44:53;;;;;;;0.50;0.50;;;22.20;59.30;;;;;;5009312;28;20038;-20
2022/09/24 01:47:49;;;;;;;0.50;0.50;;;22.10;59.20;;;;;;4981188;28;20047;-21
2022/09/24 01:50:16;;;;;;;0.60;0.60;;;22.10;59.30;;;;;;4983489;28;20056;-21
2022/09/24 01:52:54;;;;;;;0.57;0.57;;;22.20;59.30;;;;;;4985387;28;20046;-21
2022/09/24 01:55:23;;;;;;;0.40;0.40;;;22.10;59.30;;;;;;4983723;28;20416;-20
2022/09/24 01:57:54;;;;;;;0.50;0.50;;;22.10;59.40;;;;;;4983084;28;20046;-21
2022/09/24 02:00:20;;;;;;;0.50;0.50;;;22.10;59.40;;;;;;4994837;28;20049;-20
2022/09/24 02:03:21;;;;;;;0.50;0.50;;;22.10;59.30;;;;;;4984122;28;20121;-19
2022/09/24 02:05:50;;;;;;;0.60;0.60;;;22.10;59.40;;;;;;4967221;28;20599;-24
2022/09/24 02:08:21;;;;;;;0.55;0.47;;;22.10;59.40;;;;;;4987571;28;20132;-20
2022/09/24 02:10:54;;;;;;;0.40;0.40;;;22.10;59.40;;;;;;4967684;28;20046;-24
2022/09/24 02:13:23;;;;;;;0.40;0.40;;;22.10;59.50;;;;;;4984803;28;20035;-20
2022/09/24 02:15:49;;;;;;;0.40;0.40;;;22.10;59.40;;;;;;5011856;28;20066;-23
2022/09/24 02:18:16;;;;;;;0.40;0.40;;;22.10;59.50;;;;;;5009237;28;20050;-21
2022/09/24 02:20:42;;;;;;;0.82;0.40;;;22.00;59.50;;;;;;4982451;28;20050;-20
2022/09/24 02:23:09;;;;;;;0.60;0.60;;;22.00;59.70;;;;;;4983233;28;20141;-20
2022/09/24 02:25:41;;;;;;;0.68;0.68;;;22.00;59.50;;;;;;4984106;28;20052;-23
2022/09/24 02:28:07;;;;;;;0.40;0.40;;;22.00;59.50;;;;;;5002782;28;20054;-20
2022/09/24 02:30:36;;;;;;;0.40;0.40;;;22.10;59.60;;;;;;4983785;28;20129;-20
2022/09/24 02:34:19;;;;;;;1.60;0.73;;;22.00;59.50;;;;;;4995458;28;20439;-20
2022/09/24 02:35:52;;;;;;;0.43;0.43;;;22.00;59.60;;;;;;4982828;28;20508;-20
2022/09/24 02:38:17;;;;;;;0.50;0.50;;;22.00;59.60;;;;;;5001510;28;20051;-22
2022/09/24 02:40:43;;;;;;;0.40;0.40;;;22.00;59.70;;;;;;4984954;28;20535;-23
2022/09/24 02:43:08;;;;;;;0.50;0.50;;;22.00;59.70;;;;;;4982098;28;20078;-21
2022/09/24 02:45:34;;;;;;;0.40;0.40;;;22.00;59.60;;;;;;4983505;28;20129;-21
2022/09/24 02:48:00;;;;;;;0.57;0.43;;;22.00;59.60;;;;;;4982374;28;20094;-20
2022/09/24 02:50:25;;;;;;;0.40;0.40;;;22.00;59.70;;;;;;4983493;28;20069;-20
2022/09/24 02:52:51;;;;;;;0.50;0.50;;;22.00;59.80;;;;;;4984467;28;20046;-23
2022/09/24 02:55:17;;;;;;;0.40;0.40;;;22.00;59.70;;;;;;4979381;28;20452;-20
2022/09/24 02:57:43;;;;;;;0.57;0.57;;;22.00;60.50;;;;;;4985162;28;20039;-20
2022/09/24 03:00:09;;;;;;;0.40;0.40;;;21.90;59.70;;;;;;4983671;28;20424;-20
2022/09/24 03:02:34;;;;;;;0.40;0.40;;;22.00;59.70;;;;;;4980553;28;20066;-20
2022/09/24 03:05:00;;;;;;;0.43;0.43;;;22.00;59.80;;;;;;4981659;28;20073;-20
2022/09/24 03:07:25;;;;;;;0.38;0.38;;;22.00;59.70;;;;;;4982464;28;20073;-21
2022/09/24 03:09:51;;;;;;;0.40;0.40;;;21.90;59.70;;;;;;4982816;28;20050;-22
2022/09/24 03:12:17;;;;;;;1.02;0.40;;;21.90;59.80;;;;;;4983916;28;20048;-20
2022/09/24 03:14:42;;;;;;;0.50;0.50;;;21.90;59.80;;;;;;4980772;28;20149;-20
2022/09/24 03:17:08;;;;;;;0.40;0.40;;;21.90;59.80;;;;;;4985348;28;20109;-22
2022/09/24 03:19:33;;;;;;;0.40;0.40;;;21.90;59.90;;;;;;4979525;28;20050;-22
2022/09/24 03:21:59;;;;;;;0.40;0.40;;;21.90;59.90;;;;;;4984587;28;20047;-21
2022/09/24 03:24:24;;;;;;;0.40;0.40;;;21.90;59.90;;;;;;4983360;28;20129;-20
2022/09/24 03:26:50;;;;;;;0.40;0.40;;;21.90;59.90;;;;;;4982610;28;20039;-21
2022/09/24 03:29:15;;;;;;;0.68;0.63;;;21.90;59.80;;;;;;4983218;28;20547;-22
2022/09/24 03:31:41;;;;;;;0.40;0.40;;;21.90;59.80;;;;;;4983354;28;20124;-24
2022/09/24 03:34:06;;;;;;;0.30;0.30;;;21.90;59.80;;;;;;4982107;28;20101;-20
2022/09/24 03:36:32;;;;;;;0.40;0.40;;;21.90;59.80;;;;;;4983659;28;20042;-23
2022/09/24 03:38:57;;;;;;;0.47;0.47;;;21.90;59.80;;;;;;4981937;28;20582;-20
2022/09/24 03:41:26;;;;;;;0.30;0.30;;;21.90;59.90;;;;;;4985209;28;20049;-19
2022/09/24 03:43:52;;;;;;;0.32;0.32;;;21.90;59.80;;;;;;4983320;28;20381;-25
2022/09/24 03:46:18;;;;;;;0.47;0.47;;;21.90;59.90;;;;;;4982954;28;20056;-24
2022/09/24 03:48:45;;;;;;;0.30;0.30;;;21.90;59.80;;;;;;4982566;28;20404;-23
2022/09/24 03:51:13;;;;;;;0.32;0.32;;;21.90;60.00;;;;;;4980922;28;20047;-20
2022/09/24 03:53:39;;;;;;;0.30;0.30;;;21.80;60.00;;;;;;4982579;28;20050;-20
2022/09/24 03:56:05;;;;;;;0.30;0.30;;;21.80;60.10;;;;;;4983488;28;20416;-19
2022/09/24 03:58:31;;;;;;;0.30;0.30;;;21.80;60.10;;;;;;4982926;28;20043;-20
2022/09/24 04:00:57;;;;;;;0.30;0.30;;;21.80;60.10;;;;;;4980797;28;20050;-22
2022/09/24 04:03:22;;;;;;;0.30;0.30;;;21.80;60.00;;;;;;4984259;28;20050;-19
2022/09/24 04:05:50;;;;;;;0.30;0.30;;;21.80;60.00;;;;;;4983755;28;20046;-20
2022/09/24 04:08:16;;;;;;;0.40;0.40;;;21.80;60.20;;;;;;4986153;28;20104;-20
2022/09/24 04:10:44;;;;;;;0.40;0.40;;;21.80;60.10;;;;;;4987205;28;20415;-21
2022/09/24 04:13:10;;;;;;;0.30;0.30;;;21.80;59.90;;;;;;4985784;28;20032;-18
2022/09/24 04:15:35;;;;;;;0.30;0.30;;;21.80;60.10;;;;;;4987982;28;20400;-21
2022/09/24 04:18:01;;;;;;;0.25;0.25;;;21.80;60.10;;;;;;4988914;28;20104;-20
2022/09/24 04:20:27;;;;;;;0.50;0.50;;;21.80;59.90;;;;;;4988936;28;20042;-21
2022/09/24 04:22:53;;;;;;;0.30;0.30;;;21.80;59.90;;;;;;4986741;28;20038;-20
2022/09/24 04:25:19;;;;;;;0.30;0.30;;;21.80;60.20;;;;;;4988725;28;20125;-20
2022/09/24 04:27:45;;;;;;;0.50;0.50;;;21.80;60.00;;;;;;4985941;28;20104;-20
2022/09/24 04:30:12;;;;;;;0.38;0.38;;;21.80;59.90;;;;;;4986940;28;20551;-24
2022/09/24 04:32:38;;;;;;;0.40;0.40;;;21.80;59.90;;;;;;4987787;28;20049;-20
2022/09/24 04:35:04;;;;;;;0.30;0.30;;;21.80;60.10;;;;;;4987518;28;20037;-23
2022/09/24 04:37:30;;;;;;;0.32;0.32;;;21.80;60.10;;;;;;4985608;28;20042;-21
2022/09/24 04:39:56;;;;;;;0.40;0.40;;;21.80;60.20;;;;;;4984263;28;20030;-21
2022/09/24 04:42:21;;;;;;;0.30;0.30;;;21.80;60.10;;;;;;4987263;28;20038;-20
2022/09/24 04:44:47;;;;;;;0.28;0.28;;;21.80;60.10;;;;;;4986766;28;20428;-20
2022/09/24 04:47:16;;;;;;;0.30;0.30;;;21.80;60.10;;;;;;4984934;28;20773;-19
2022/09/24 04:49:44;;;;;;;0.40;0.40;;;21.80;60.20;;;;;;4985252;28;20049;-22
2022/09/24 04:52:16;;;;;;;0.35;0.35;;;21.80;60.20;;;;;;4981171;28;20500;-20
2022/09/24 04:54:43;;;;;;;0.40;0.40;;;21.80;60.20;;;;;;4986740;28;20045;-23
2022/09/24 04:57:09;;;;;;;0.30;0.30;;;21.80;61.00;;;;;;4984164;28;20556;-22
2022/09/24 04:59:35;;;;;;;0.30;0.30;;;21.80;60.30;;;;;;4983620;28;20534;-20
2022/09/24 05:02:01;;;;;;;0.30;0.30;;;21.70;60.20;;;;;;4985816;28;20022;-20
2022/09/24 05:04:26;;;;;;;0.55;0.30;;;21.80;61.30;;;;;;4984135;28;20050;-20
2022/09/24 05:06:52;;;;;;;0.30;0.30;;;21.80;60.20;;;;;;4983326;28;20045;-22
2022/09/24 05:09:18;;;;;;;0.35;0.35;;;21.80;60.40;;;;;;4983918;28;20048;-20
2022/09/24 05:11:43;;;;;;;0.38;0.38;;;21.70;60.20;;;;;;4982852;28;20043;-21
2022/09/24 05:14:09;;;;;;;0.30;0.30;;;21.70;60.20;;;;;;4989028;28;20121;-20
2022/09/24 05:16:34;;;;;;;0.40;0.40;;;21.70;60.20;;;;;;4984428;28;20507;-20
2022/09/24 05:19:03;;;;;;;0.20;0.20;;;21.70;60.30;;;;;;4984529;28;20039;-22
2022/09/24 05:21:28;;;;;;;0.73;0.20;;;21.70;60.60;;;;;;4985746;28;20638;-22
2022/09/24 05:23:54;;;;;;;0.30;0.30;;;21.70;60.50;;;;;;4981868;28;20039;-21
2022/09/24 05:29:04;;;;;;;0.30;0.30;;;21.70;60.30;;;;;;4986543;28;20073;-20
2022/09/24 05:31:29;;;;;;;0.30;0.30;;;21.70;60.30;;;;;;4986469;28;20078;-25
2022/09/24 05:33:55;;;;;;;0.30;0.30;;;21.70;60.30;;;;;;4981607;28;20038;-21
2022/09/24 05:36:21;;;;;;;0.40;0.40;;;21.70;60.40;;;;;;4983388;28;20138;-23
2022/09/24 05:38:47;;;;;;;0.30;0.30;;;21.70;60.50;;;;;;4984158;28;20047;-23
2022/09/24 05:41:13;;;;;;;1.27;0.30;;;21.70;60.70;;;;;;4984134;28;20049;-20
2022/09/24 05:43:39;;;;;;;0.95;0.30;;;21.70;60.60;;;;;;4982735;28;20112;-21
2022/09/24 05:46:06;;;;;;;0.35;0.30;;;21.70;60.50;;;;;;4985197;28;20547;-21
2022/09/24 05:48:32;;;;;;;0.25;0.25;;;21.70;60.50;;;;;;4984754;28;20043;-20
2022/09/24 05:51:00;;;;;;;0.30;0.30;;;21.70;60.60;;;;;;4984244;28;20121;-20
2022/09/24 05:53:25;;;;;;;0.47;0.30;;;21.70;60.70;;;;;;4985982;28;20042;-20
2022/09/24 05:55:51;;;;;;;0.10;0.10;;;21.70;60.50;;;;;;4986964;28;20050;-21
2022/09/24 05:58:17;;;;;;;0.22;0.22;;;21.70;61.10;;;;;;4982823;28;20030;-21
2022/09/24 06:00:44;;;;;;;3.72;0.30;;;21.70;60.50;;;;;;4983308;28;20046;-19
2022/09/24 06:03:13;;;;;;;0.40;0.40;;;21.70;60.60;;;;;;4980317;28;20041;-20
2022/09/24 06:05:47;;;;;;;0.30;0.30;;;21.70;60.60;;;;;;4984079;28;20408;-21
2022/09/24 06:08:14;;;;;;;0.20;0.20;;;21.70;60.70;;;;;;4984829;28;20052;-21
2022/09/24 06:10:40;;;;;;;0.30;0.28;;;21.70;60.60;;;;;;4983786;28;20054;-21
2022/09/24 06:13:06;;;;;;;0.30;0.30;;;21.60;60.50;;;;;;4983434;28;20041;-21
2022/09/24 06:15:33;;;;;;;0.28;0.20;;;21.70;60.70;;;;;;4984748;28;20042;-22
2022/09/24 06:17:59;;;;;;;0.30;0.30;;;21.60;60.70;;;;;;4987153;28;20046;-19
2022/09/24 06:20:25;;;;;;;0.30;0.30;;;21.70;60.60;;;;;;4985095;28;20578;-20
2022/09/24 06:22:53;;;;;;;1.60;0.40;;;21.70;60.80;;;;;;4983915;28;20066;-23
2022/09/24 06:25:18;;;;;;;0.25;0.25;;;21.60;60.60;;;;;;4981992;28;20046;-20
2022/09/24 06:27:44;;;;;;;0.30;0.20;;;21.60;60.80;;;;;;4983544;28;20061;-19
2022/09/24 06:30:10;;;;;;;0.95;0.38;;;21.60;60.70;;;;;;4982661;28;20154;-22
2022/09/24 06:32:36;;;;;;;0.20;0.20;;;21.60;60.60;;;;;;4984028;28;20051;-19
2022/09/24 06:35:02;;;;;;;0.20;0.20;;;21.60;60.70;;;;;;4986620;28;20053;-21
2022/09/24 06:37:27;;;;;;;0.40;0.30;;;21.70;60.60;;;;;;4982345;28;20042;-21
2022/09/24 06:39:53;;;;;;;0.30;0.30;;;21.70;60.50;;;;;;4983375;28;20050;-19
2022/09/24 06:42:19;;;;;;;0.20;0.20;;;21.60;60.60;;;;;;4983951;28;20045;-20
2022/09/24 06:44:45;;;;;;;0.20;0.20;;;21.60;60.70;;;;;;4985573;28;20054;-20
2022/09/24 06:47:11;;;;;;;0.40;0.40;;;21.60;60.90;;;;;;4985989;28;20389;-23
2022/09/24 06:49:37;;;;;;;0.20;0.20;;;21.60;61.40;;;;;;4983963;28;20050;-20
2022/09/24 06:52:03;;;;;;;0.20;0.20;;;21.60;60.70;;;;;;4985135;28;20034;-20
2022/09/24 06:54:28;;;;;;;0.22;0.22;;;21.60;60.90;;;;;;4985556;28;20126;-20
2022/09/24 06:56:54;;;;;;;0.20;0.20;;;21.60;60.50;;;;;;4983485;28;20125;-20
2022/09/24 06:59:19;;;;;;;0.20;0.20;;;21.60;60.90;;;;;;4985888;28;20093;-22
2022/09/24 07:01:45;;;;;;;0.30;0.30;;;21.60;60.70;;;;;;4982534;28;20043;-20
2022/09/24 07:04:11;;;;;;;0.20;0.20;;;21.60;60.70;;;;;;4984294;28;20051;-20
2022/09/24 07:09:21;;;;;;;0.28;0.28;;;21.60;60.70;;;;;;4979601;28;20088;-22
2022/09/24 07:11:47;;;;;;;0.20;0.20;;;21.60;60.80;;;;;;4980886;28;20046;-20
2022/09/24 07:14:13;;;;;;;0.20;0.20;;;21.60;60.70;;;;;;4987402;28;20100;-23
2022/09/24 07:16:39;;;;;;;0.32;0.30;;;21.60;60.30;;;;;;4980029;28;20057;-21
2022/09/24 07:19:04;;;;;;;1.23;0.30;;;21.60;60.90;;;;;;4633032;28;9999830;-21
2022/09/24 07:21:30;;;;;;;0.57;0.25;;;21.60;61.60;;;;;;4981951;28;20054;-19
2022/09/24 07:23:55;;;;;;;0.20;0.20;;;21.60;60.90;;;;;;4979414;28;20038;-28
2022/09/24 07:26:21;;;;;;;0.20;0.17;;;21.60;61.10;;;;;;4982583;28;20767;-22
2022/09/24 07:28:46;;;;;;;0.40;0.30;;;21.60;61.30;;;;;;4978759;28;20052;-21
2022/09/24 07:31:12;;;;;;;1.65;0.30;;;21.50;61.30;;;;;;4975740;28;20046;-22
2022/09/24 07:33:37;;;;;;;0.98;0.20;;;21.50;61.40;;;;;;4975391;28;20038;-24
2022/09/24 07:36:06;;;;;;;0.20;0.20;;;21.50;61.50;;;;;;4973969;28;20128;-21
2022/09/24 07:38:32;;;;;;;2.05;0.20;;;21.50;61.30;;;;;;4974498;28;20045;-29
2022/09/24 07:40:58;;;;;;;0.35;0.35;;;21.60;61.50;;;;;;4978594;28;20046;-21
2022/09/24 07:43:23;;;;;;;0.30;0.30;;;21.60;61.40;;;;;;4977023;28;20372;-20
2022/09/24 07:45:49;;;;;;;0.30;0.30;;;21.60;61.50;;;;;;4980345;28;20120;-20
2022/09/24 07:48:15;;;;;;;0.30;0.30;;;21.60;61.40;;;;;;4978891;28;20061;-20
2022/09/24 07:50:41;;;;;;;0.40;0.40;;;21.60;61.70;;;;;;4982538;28;20046;-22
2022/09/24 07:53:09;;;;;;;0.30;0.30;;;21.50;62.10;;;;;;4982167;28;20050;-21
2022/09/24 07:55:38;;;;;;;0.40;0.40;;;21.60;61.70;;;;;;5006599;28;21196;-20
2022/09/24 07:58:03;;;;;;;0.20;0.20;;;21.50;61.70;;;;;;4980371;28;20077;-22
2022/09/24 08:00:29;;;;;;;0.30;0.30;;;21.50;61.80;;;;;;4980619;28;20038;-25
2022/09/24 08:02:55;;;;;;;0.55;0.40;;;21.50;62.00;;;;;;4981010;28;20054;-20
2022/09/24 08:05:20;;;;;;;0.38;0.38;;;21.50;62.00;;;;;;4992419;28;20053;-20
2022/09/24 08:07:53;;;;;;;0.40;0.40;;;21.50;61.90;;;;;;4986633;28;20042;-21
2022/09/24 08:10:19;;;;;;;0.52;0.52;;;21.50;61.90;;;;;;4985039;28;20038;-21
2022/09/24 08:12:44;;;;;;;0.40;0.40;;;21.50;62.00;;;;;;4983955;28;20056;-21
2022/09/24 08:15:10;;;;;;;3.20;0.30;;;21.50;61.80;;;;;;4981578;28;20069;-21
2022/09/24 08:17:35;;;;;;;0.70;0.40;;;21.50;61.90;;;;;;4983741;28;20037;-21
2022/09/24 08:20:01;;;;;;;0.63;0.63;;;21.50;62.00;;;;;;4981241;28;20038;-21
2022/09/24 08:22:26;;;;;;;0.30;0.30;;;21.50;62.80;;;;;;4982740;28;20058;-20
2022/09/24 08:24:52;;;;;;;0.30;0.30;;;21.60;62.20;;;;;;4984274;28;20030;-21
2022/09/24 08:27:19;;;;;;;0.40;0.40;;;21.60;61.70;;;;;;4981995;28;20473;-22
2022/09/24 08:29:45;;;;;;;0.55;0.40;;;21.60;62.00;;;;;;4980145;28;20070;-22
2022/09/24 08:32:11;;;;;;;0.45;0.45;;;21.60;62.00;;;;;;4982245;28;20061;-26
2022/09/24 08:34:39;;;;;;;0.55;0.55;;;21.60;62.20;;;;;;4981449;28;20042;-21
2022/09/24 08:37:05;;;;;;;0.47;0.30;;;21.60;62.10;;;;;;4979949;28;20130;-22
2022/09/24 08:39:34;;;;;;;0.57;0.30;;;21.60;63.10;;;;;;4980743;28;20137;-20
2022/09/24 08:42:10;;;;;;;1.70;0.50;;;21.60;62.20;;;;;;4980902;28;20050;-20
2022/09/24 08:47:47;;;;;;;0.85;0.40;;;21.70;62.40;;;;;;4978938;28;20124;-24
2022/09/24 08:50:29;;;;;;;4.60;0.73;;;21.70;61.60;;;;;;4655152;28;9999931;-27
2022/09/24 08:53:06;;;;;;;0.43;0.35;;;21.70;62.20;;;;;;4965561;28;20093;-20
2022/09/24 08:55:38;;;;;;;0.80;0.38;;;21.70;62.60;;;;;;4979230;28;20057;-25
2022/09/24 08:58:16;;;;;;;1.65;0.40;;;21.70;62.80;;;;;;4983481;28;20417;-25
2022/09/24 09:00:59;;;;;;;0.95;0.45;;;21.70;62.40;;;;;;4973945;28;20046;-20
2022/09/24 09:03:35;;;;;;;0.40;0.40;;;21.80;62.50;;;;;;5007678;28;20081;-20
2022/09/24 09:06:24;;;;;;;0.75;0.75;;;21.70;62.50;;;;;;4975533;28;20592;-21
2022/09/24 09:09:30;;;;;;;0.50;0.50;;;21.80;62.50;;;;;;4977394;28;21391;-21
2022/09/24 09:12:00;;;;;;;1.35;0.40;;;21.80;62.50;;;;;;4978622;28;22396;-22
2022/09/24 09:14:42;;;;;;;1.02;0.60;;;21.80;63.10;;;;;;4996170;28;20026;-20
2022/09/24 09:17:18;;;;;;;0.77;0.40;;;21.90;62.40;;;;;;5013628;28;20113;-21
2022/09/24 09:19:55;;;;;;;1.08;0.50;;;21.90;62.30;;;;;;4981393;28;20127;-20
2022/09/24 09:22:26;;;;;;;0.65;0.50;;;21.90;62.20;;;;;;4980818;28;20046;-21
2022/09/24 09:24:52;;;;;;;3.30;0.57;;;21.90;62.10;;;;;;5012338;28;20030;-20
2022/09/24 09:27:18;;;;;;;0.45;0.40;;;21.90;62.70;;;;;;4982200;28;20046;-20
2022/09/24 09:29:49;;;;;;;0.75;0.50;;;21.90;62.40;;;;;;4981287;28;20052;-20
2022/09/24 09:32:38;;;;;;;0.57;0.50;;;21.90;62.40;;;;;;4987509;28;20536;-20
2022/09/24 09:35:20;;;;;;;1.27;0.30;;;21.90;62.20;;;;;;4986545;28;20539;-21
2022/09/24 09:38:00;;;;;;;0.93;0.38;;;22.00;61.90;;;;;;4980768;28;20057;-20
2022/09/24 09:40:36;;;;;;;1.58;0.50;;;22.00;61.40;;;;;;4967330;28;20054;-20
2022/09/24 09:43:09;;;;;;;1.90;0.60;;;22.00;61.70;;;;;;4978273;28;20038;-21
2022/09/24 09:45:53;;;;;;;0.73;0.50;;;22.00;61.70;;;;;;4980162;28;20050;-20
2022/09/24 09:48:18;;;;;;;0.50;0.40;;;22.00;61.40;;;;;;4977609;28;20109;-20
2022/09/24 09:50:51;;;;;;;1.08;0.32;;;22.10;61.90;;;;;;5008096;28;20061;-21
2022/09/24 09:53:21;;;;;;;0.43;0.30;;;22.10;61.70;;;;;;5010260;28;20511;-25
2022/09/24 09:55:59;;;;;;;0.28;0.28;;;22.10;61.40;;;;;;4983852;28;20528;-22
2022/09/24 09:58:31;;;;;;;1.23;0.32;;;22.10;61.30;;;;;;4980141;28;20077;-21
2022/09/24 10:01:11;;;;;;;1.38;0.52;;;22.10;61.40;;;;;;4982325;28;20150;-21
2022/09/24 10:03:43;;;;;;;0.68;0.40;;;22.20;61.40;;;;;;5003306;28;20054;-22
2022/09/24 10:06:10;;;;;;;0.52;0.40;;;22.20;61.50;;;;;;4984165;28;20045;-24
2022/09/24 10:08:35;;;;;;;0.30;0.25;;;22.20;61.50;;;;;;4978333;28;20170;-21
2022/09/24 10:11:02;;;;;;;0.40;0.40;;;22.20;61.90;;;;;;4983465;28;20129;-20
2022/09/24 10:13:27;;;;;;;0.20;0.20;;;22.20;61.60;;;;;;4978766;28;20121;-22
2022/09/24 10:15:55;;;;;;;1.75;0.20;;;22.20;62.10;;;;;;4977518;28;20088;-23
2022/09/24 10:18:29;;;;;;;3.50;0.40;;;22.20;61.20;;;;;;5000588;28;20436;-26
2022/09/24 10:20:55;;;;;;;0.38;0.20;;;22.20;61.30;;;;;;4982187;28;20744;-22
2022/09/24 10:23:25;;;;;;;0.75;0.30;;;22.20;61.40;;;;;;4981343;28;20045;-20
2022/09/24 10:25:57;;;;;;;0.35;0.30;;;22.20;61.20;;;;;;4983544;28;20046;-20
2022/09/24 10:31:22;;;;;;;;;;;22.20;61.20;;;;;;4980429;28;20045;-23
2022/09/24 10:33:50;;;;;;;0.38;0.20;;;22.20;61.10;;;;;;4983063;28;19924;-20
2022/09/24 10:36:23;;;;;;;1.75;0.40;;;22.20;60.90;;;;;;4983623;28;20125;-20
2022/09/24 10:38:59;;;;;;;0.33;0.27;;;22.30;60.80;;;;;;4979916;28;20039;-20
2022/09/24 10:41:28;;;;;;;0.85;0.60;;;22.30;60.70;;;;;;4977746;28;20034;-21
2022/09/24 10:43:55;;;;;;;1.85;0.50;;;22.30;60.60;;;;;;4978459;28;20043;-23
2022/09/24 10:46:38;;;;;;;1.70;0.85;;;22.30;60.50;;;;;;4989703;28;20042;-23
2022/09/24 10:49:26;;;;;;;0.67;0.63;;;22.30;60.30;;;;;;4971900;28;20039;-30
2022/09/24 10:51:55;;;;;;;0.50;0.40;;;22.30;60.30;;;;;;4977722;28;20484;-23
2022/09/24 10:54:50;;;;;;;0.63;0.43;;;22.40;60.40;;;;;;4980190;28;20452;-22
2022/09/24 10:57:30;;;;;;;1.38;0.40;;;22.40;60.50;;;;;;4973789;28;20085;-31
2022/09/24 10:59:55;;;;;;;0.40;0.38;;;22.40;60.60;;;;;;4976163;28;20053;-24
2022/09/24 11:02:50;;;;;;;0.88;0.30;;;22.40;60.40;;;;;;4981189;28;20034;-24
2022/09/24 11:05:22;;;;;;;0.40;0.30;;;22.40;60.40;;;;;;5005727;28;20101;-24
2022/09/24 11:07:55;;;;;;;0.43;0.30;;;22.50;60.50;;;;;;4978236;28;20054;-25
2022/09/24 11:10:43;;;;;;;0.38;0.25;;;22.40;60.60;;;;;;4977505;28;20048;-28
2022/09/24 11:13:30;;;;;;;0.30;0.30;;;22.50;60.40;;;;;;5012308;28;20038;-31
2022/09/24 11:16:08;;;;;;;0.22;0.20;;;22.50;60.20;;;;;;4979490;28;20053;-24
2022/09/24 11:18:49;;;;;;;0.63;0.20;;;22.50;60.20;;;;;;4977343;28;20046;-25
2022/09/24 11:21:20;;;;;;;0.20;0.20;;;22.50;60.20;;;;;;4977999;28;20046;-25
2022/09/24 11:24:08;;;;;;;0.50;0.30;;;22.50;59.80;;;;;;4979825;28;20074;-26
2022/09/24 11:26:45;;;;;;;1.02;0.38;;;22.50;59.50;;;;;;5001012;28;20052;-21
2022/09/24 11:29:16;;;;;;;0.45;0.20;;;22.50;59.40;;;;;;4996025;28;20050;-27
2022/09/24 11:32:05;;;;;;;0.70;0.30;;;22.50;59.20;;;;;;4978976;28;20188;-21
2022/09/24 11:34:36;;;;;;;0.38;0.30;;;22.50;59.00;;;;;;4976891;28;20415;-23
2022/09/24 11:37:33;;;;;;;0.63;0.30;;;22.60;58.60;;;;;;4980749;28;20042;-25
2022/09/24 11:40:35;;;;;;;0.68;0.30;;;22.60;58.40;;;;;;4980771;28;20054;-26
2022/09/24 11:43:22;;;;;;;1.33;0.40;;;22.60;58.40;;;;;;4976719;28;20042;-29
2022/09/24 11:45:50;;;;;;;0.38;0.20;;;22.60;58.40;;;;;;4980409;28;20104;-25
2022/09/24 11:48:53;;;;;;;0.25;0.25;;;22.60;58.50;;;;;;4980279;28;20464;-25
2022/09/24 11:51:57;;;;;;;0.43;0.28;;;22.70;58.30;;;;;;4955769;28;20058;-25
2022/09/24 11:54:31;;;;;;;0.50;0.22;;;22.60;57.80;;;;;;4942989;28;20047;-28
2022/09/24 11:57:10;;;;;;;0.38;0.30;;;22.70;57.80;;;;;;4958038;28;20086;-22
2022/09/24 12:00:11;;;;;;;0.77;0.38;;;22.60;57.70;;;;;;4924433;28;20090;-25
2022/09/24 12:02:44;;;;;;;0.20;0.20;;;22.70;57.40;;;;;;4881033;29;20085;-25
2022/09/24 12:05:21;;;;;;;0.30;0.30;;;22.70;57.30;;;;;;4883364;29;20585;-26
2022/09/24 12:07:48;;;;;;;0.75;0.50;;;22.70;57.10;;;;;;4880882;29;20052;-24
2022/09/24 12:10:31;;;;;;;1.65;0.28;;;22.70;57.20;;;;;;4866902;29;20048;-24
2022/09/24 12:13:04;;;;;;;0.93;0.20;;;22.70;56.90;;;;;;4881688;29;20055;-23
2022/09/24 12:15:52;;;;;;;0.45;0.20;;;22.80;57.00;;;;;;4881222;29;20052;-31
2022/09/24 12:18:32;;;;;;;0.55;0.20;;;22.70;56.80;;;;;;4860850;29;20487;-24
2022/09/24 12:21:09;;;;;;;0.43;0.40;;;22.80;56.60;;;;;;4881330;29;20053;-30
2022/09/24 12:23:38;;;;;;;0.55;0.28;;;22.80;56.60;;;;;;4879285;29;20614;-24
2022/09/24 12:26:04;;;;;;;0.60;0.40;;;22.80;56.40;;;;;;4881695;29;20049;-27
2022/09/24 12:34:56;;;;;;;0.20;0.20;;;22.80;55.90;;;;;;4887249;29;20942;-25
2022/09/24 12:37:24;;;;;;;0.40;0.30;;;22.90;55.50;;;;;;4957023;28;20050;-26
2022/09/24 12:40:21;;;;;;;0.50;0.40;;;22.90;55.50;;;;;;5010346;28;20042;-27
2022/09/24 12:42:50;;;;;;;0.25;0.25;;;22.90;56.30;;;;;;4979457;28;20069;-27
2022/09/24 12:45:18;;;;;;;0.52;0.30;;;22.90;56.60;;;;;;4996017;28;20042;-28
2022/09/24 12:48:04;;;;;;;0.38;0.25;;;22.90;56.80;;;;;;4981215;28;20054;-25
2022/09/24 12:50:33;;;;;;;0.20;0.20;;;22.90;57.10;;;;;;4980514;28;20116;-25
2022/09/24 12:52:59;;;;;;;0.30;0.20;;;22.90;56.30;;;;;;4981411;28;20046;-25
2022/09/24 12:55:32;;;;;;;0.50;0.50;;;22.90;56.30;;;;;;4978965;28;20067;-28
2022/09/24 12:58:04;;;;;;;0.82;0.70;;;23.00;56.60;;;;;;4978468;28;20061;-34
2022/09/24 13:00:35;;;;;;;0.88;0.88;;;23.00;56.10;;;;;;4979747;28;20035;-26
2022/09/24 13:03:01;;;;;;;1.98;0.90;;;23.00;56.20;;;;;;4979417;28;20153;-28
2022/09/24 13:05:32;;;;;;;1.10;1.00;;;23.00;56.10;;;;;;4979729;28;20069;-28
2022/09/24 13:08:06;;;;;;;1.33;1.27;;;23.00;55.90;;;;;;4982979;28;20054;-24
2022/09/24 13:10:34;;;;;;;1.30;1.20;;;23.00;55.50;;;;;;4978802;28;20038;-24
2022/09/24 13:13:00;;;;;;;1.35;1.20;;;23.00;55.70;;;;;;4979624;28;20392;-26
2022/09/24 13:15:28;;;;;;;1.08;1.00;;;23.10;55.40;;;;;;4962378;28;20045;-30
2022/09/24 13:18:09;;;;;;;1.08;0.90;;;23.10;55.50;;;;;;4978509;28;20474;-28
2022/09/24 13:20:36;;;;;;;1.02;0.90;;;23.10;54.30;;;;;;4975920;28;20038;-28
2022/09/24 13:23:18;;;;;;;1.00;0.90;;;23.10;55.30;;;;;;4978232;28;20050;-23
2022/09/24 13:26:03;;;;;;;0.80;0.77;;;23.10;53.90;;;;;;4983140;28;20313;-26